Time;durP1;ratioP1;P1;durP2;ratioP2;P2;SDS_P1;SDS_P2;PMS_P1;PMS_P2;Temp;Humidity;BMP_temperature;BMP_pressure;BME280_temperature;BME280_humidity;BME280_pressure;Samples;Min_cycle;Max_cycle;Signal;HPM_P1;HPM_P2
2023/12/08 00:00:25;;;;;;;;;;;19.40;54.10;;;;;;5035274;28;19979;-66
2023/12/08 00:02:51;;;;;;;;;;;19.40;53.30;;;;;;5052786;28;19978;-65
2023/12/08 00:05:16;;;;;;;;;;;19.40;53.30;;;;;;5051941;28;20028;-67
2023/12/08 00:07:42;;;;;;;;;;;19.40;53.30;;;;;;5052801;28;19978;-67
2023/12/08 00:10:07;;;;;;;;;;;19.40;53.30;;;;;;5034343;28;19925;-67
2023/12/08 00:12:33;;;;;;;;;;;19.40;53.30;;;;;;5035043;28;19950;-65
2023/12/08 00:14:58;;;;;;;;;;;19.30;53.20;;;;;;5034598;28;19924;-66
2023/12/08 00:17:24;;;;;;;;;;;19.30;53.10;;;;;;5052184;28;19928;-65
2023/12/08 00:19:49;;;;;;;;;;;19.30;53.20;;;;;;5035215;28;20075;-65
2023/12/08 00:22:15;;;;;;;;;;;19.30;53.20;;;;;;5034938;28;19925;-67
2023/12/08 00:24:40;;;;;;;;;;;19.30;53.20;;;;;;5050983;28;20329;-64
2023/12/08 00:27:06;;;;;;;;;;;19.30;53.20;;;;;;5050333;28;19925;-65
2023/12/08 00:29:32;;;;;;;;;;;19.30;53.20;;;;;;5066424;28;19924;-65
2023/12/08 00:31:57;;;;;;;;;;;19.20;53.20;;;;;;5055549;28;19924;-65
2023/12/08 00:34:23;;;;;;;;;;;19.20;53.10;;;;;;5074737;28;20011;-65
2023/12/08 00:36:48;;;;;;;;;;;19.20;53.10;;;;;;5056710;28;19932;-65
2023/12/08 00:39:14;;;;;;;;;;;19.20;53.10;;;;;;5054903;28;19928;-65
2023/12/08 00:41:39;;;;;;;;;;;19.20;53.10;;;;;;5056864;28;19965;-64
2023/12/08 00:44:05;;;;;;;;;;;19.20;53.10;;;;;;5076239;28;19928;-65
2023/12/08 00:46:31;;;;;;;;;;;19.20;53.00;;;;;;5057698;28;19920;-64
2023/12/08 00:48:56;;;;;;;;;;;19.20;53.00;;;;;;5075278;28;19924;-65
2023/12/08 00:51:22;;;;;;;;;;;19.10;53.00;;;;;;5076116;28;19932;-64
2023/12/08 00:53:47;;;;;;;;;;;19.10;53.00;;;;;;5075605;28;19928;-64
2023/12/08 00:56:12;;;;;;;;;;;19.10;53.00;;;;;;5076081;28;19924;-65
2023/12/08 00:58:38;;;;;;;;;;;19.10;53.00;;;;;;5067420;28;19948;-64
2023/12/08 01:01:04;;;;;;;;;;;19.10;53.00;;;;;;5037206;28;19960;-65
2023/12/08 01:03:29;;;;;;;;;;;19.10;53.00;;;;;;5037840;28;19925;-65
2023/12/08 01:05:55;;;;;;;;;;;19.10;53.70;;;;;;5045991;28;19921;-64
2023/12/08 01:08:20;;;;;;;;;;;19.10;53.00;;;;;;5074961;28;19925;-65
2023/12/08 01:10:46;;;;;;;;;;;19.10;53.00;;;;;;5075088;28;20299;-64
2023/12/08 01:13:11;;;;;;;;;;;19.10;53.00;;;;;;5075656;28;19928;-65
2023/12/08 01:15:37;;;;;;;;;;;19.10;52.90;;;;;;5074235;28;20551;-65
2023/12/08 01:18:02;;;;;;;;;;;19.00;52.90;;;;;;5057646;28;19924;-65
2023/12/08 01:20:28;;;;;;;;;;;19.00;52.90;;;;;;5054521;28;20284;-64
2023/12/08 01:22:54;;;;;;;;;;;19.10;53.00;;;;;;5037274;28;20347;-64
2023/12/08 01:25:19;;;;;;;;;;;19.00;52.90;;;;;;5037209;28;19924;-64
2023/12/08 01:27:45;;;;;;;;;;;19.10;53.00;;;;;;5036730;28;20284;-64
2023/12/08 01:30:10;;;;;;;;;;;19.00;52.90;;;;;;5037600;28;20462;-65
2023/12/08 01:32:36;;;;;;;;;;;19.00;52.90;;;;;;5055500;28;19978;-65
2023/12/08 01:35:01;;;;;;;;;;;19.00;52.90;;;;;;5036310;28;19951;-65
2023/12/08 01:37:27;;;;;;;;;;;19.00;52.90;;;;;;5037757;28;19925;-65
2023/12/08 01:39:52;;;;;;;;;;;19.00;52.90;;;;;;5036993;28;19924;-64
2023/12/08 01:42:18;;;;;;;;;;;19.00;52.90;;;;;;5035604;28;19950;-65
2023/12/08 01:44:43;;;;;;;;;;;19.00;52.90;;;;;;5037284;28;19932;-65
2023/12/08 01:47:09;;;;;;;;;;;19.00;52.80;;;;;;5054847;28;19929;-65
2023/12/08 01:49:35;;;;;;;;;;;19.00;52.90;;;;;;5036919;28;19951;-65
2023/12/08 01:52:02;;;;;;;;;;;19.00;52.90;;;;;;5035787;28;19924;-65
2023/12/08 01:54:28;;;;;;;;;;;19.00;52.80;;;;;;5040628;28;19956;-65
2023/12/08 01:56:53;;;;;;;;;;;19.00;52.80;;;;;;5039265;28;19979;-65
2023/12/08 01:59:19;;;;;;;;;;;19.00;52.80;;;;;;5057084;28;19928;-65
2023/12/08 02:01:44;;;;;;;;;;;19.00;52.70;;;;;;5056813;28;19947;-65
2023/12/08 02:04:10;;;;;;;;;;;19.00;52.70;;;;;;5038832;28;20395;-65
2023/12/08 02:06:35;;;;;;;;;;;19.00;52.70;;;;;;5040071;28;19924;-65
2023/12/08 02:09:01;;;;;;;;;;;19.00;52.70;;;;;;5056640;28;19924;-65
2023/12/08 02:11:26;;;;;;;;;;;18.90;52.60;;;;;;5055079;28;19921;-64
2023/12/08 02:13:53;;;;;;;;;;;18.90;52.70;;;;;;5039775;28;19986;-66
2023/12/08 02:16:24;;;;;;;;;;;19.00;52.70;;;;;;5039639;28;19956;-65
2023/12/08 02:18:49;;;;;;;;;;;18.90;52.60;;;;;;5055843;28;20372;-65
2023/12/08 02:21:15;;;;;;;;;;;18.90;52.60;;;;;;5038670;28;19928;-65
2023/12/08 02:23:47;;;;;;;;;;;19.00;52.70;;;;;;5039164;28;19924;-65
2023/12/08 02:26:12;;;;;;;;;;;19.00;52.60;;;;;;5055950;28;20285;-65
2023/12/08 02:28:38;;;;;;;;;;;19.00;52.60;;;;;;5074382;28;20376;-65
2023/12/08 02:31:03;;;;;;;;;;;18.90;52.50;;;;;;5073372;28;19931;-65
2023/12/08 02:33:32;;;;;;;;;;;18.90;52.60;;;;;;5039255;28;19932;-65
2023/12/08 02:36:01;;;;;;;;;;;18.90;52.50;;;;;;5073883;28;20675;-66
2023/12/08 02:38:26;;;;;;;;;;;18.90;52.50;;;;;;5038898;28;19925;-65
2023/12/08 02:40:52;;;;;;;;;;;18.90;52.50;;;;;;5039091;28;19924;-65
2023/12/08 02:43:17;;;;;;;;;;;18.90;52.50;;;;;;5073859;28;20010;-65
2023/12/08 02:45:43;;;;;;;;;;;18.90;52.50;;;;;;5073563;28;19930;-65
2023/12/08 02:48:08;;;;;;;;;;;18.90;52.40;;;;;;5054968;28;19931;-65
2023/12/08 02:50:34;;;;;;;;;;;18.90;52.50;;;;;;5056189;28;19925;-65
2023/12/08 02:52:59;;;;;;;;;;;18.90;52.40;;;;;;5062778;28;20020;-65
2023/12/08 02:55:24;;;;;;;;;;;18.90;52.50;;;;;;5053739;28;19975;-65
2023/12/08 02:57:50;;;;;;;;;;;18.90;52.50;;;;;;5053458;28;19925;-65
2023/12/08 03:00:16;;;;;;;;;;;18.90;52.40;;;;;;5052412;28;19927;-66
2023/12/08 03:02:42;;;;;;;;;;;18.90;52.40;;;;;;5053361;28;19924;-65
2023/12/08 03:05:07;;;;;;;;;;;18.90;52.40;;;;;;5042799;28;19943;-66
2023/12/08 03:07:33;;;;;;;;;;;18.90;52.40;;;;;;5054395;28;19954;-66
2023/12/08 03:09:59;;;;;;;;;;;18.90;52.50;;;;;;5055510;28;19924;-65
2023/12/08 03:12:24;;;;;;;;;;;18.90;52.40;;;;;;5055712;28;19929;-65
2023/12/08 03:14:50;;;;;;;;;;;18.90;52.40;;;;;;5073107;28;19925;-66
2023/12/08 03:17:15;;;;;;;;;;;18.90;52.40;;;;;;5039738;28;19939;-65
2023/12/08 03:19:41;;;;;;;;;;;18.90;52.40;;;;;;5053861;28;19929;-66
2023/12/08 03:22:06;;;;;;;;;;;18.90;52.40;;;;;;5052672;28;20295;-66
2023/12/08 03:24:32;;;;;;;;;;;18.90;52.30;;;;;;5034725;28;19932;-65
2023/12/08 03:26:57;;;;;;;;;;;18.90;52.30;;;;;;5052284;28;19931;-66
2023/12/08 03:29:23;;;;;;;;;;;18.90;52.30;;;;;;5035794;28;19925;-66
2023/12/08 03:31:48;;;;;;;;;;;18.90;52.30;;;;;;5053503;28;19931;-66
2023/12/08 03:34:14;;;;;;;;;;;18.90;52.30;;;;;;5034004;28;19931;-66
2023/12/08 03:36:39;;;;;;;;;;;18.90;52.30;;;;;;5035368;28;19964;-66
2023/12/08 03:39:05;;;;;;;;;;;18.90;52.30;;;;;;5035111;28;19994;-65
2023/12/08 03:41:30;;;;;;;;;;;18.90;52.20;;;;;;5034123;28;19931;-65
2023/12/08 03:43:56;;;;;;;;;;;18.90;52.20;;;;;;5034820;28;20395;-66
2023/12/08 03:46:21;;;;;;;;;;;18.90;52.20;;;;;;5059436;28;20014;-65
2023/12/08 03:48:47;;;;;;;;;;;18.90;52.20;;;;;;5053918;28;20555;-66
2023/12/08 03:51:12;;;;;;;;;;;18.90;52.20;;;;;;5072642;28;19924;-65
2023/12/08 03:53:37;;;;;;;;;;;18.90;52.20;;;;;;5054521;28;19931;-65
2023/12/08 03:56:03;;;;;;;;;;;18.90;52.20;;;;;;5054168;28;19931;-65
2023/12/08 03:58:29;;;;;;;;;;;19.00;52.20;;;;;;5073020;28;19933;-66
2023/12/08 04:00:54;;;;;;;;;;;19.00;52.20;;;;;;5055178;28;19963;-66
2023/12/08 04:03:20;;;;;;;;;;;19.00;52.20;;;;;;5071652;28;20380;-66
2023/12/08 04:05:45;;;;;;;;;;;19.00;52.20;;;;;;5040092;28;19928;-66
2023/12/08 04:08:11;;;;;;;;;;;19.00;52.20;;;;;;5058788;28;19990;-66
2023/12/08 04:10:37;;;;;;;;;;;19.00;52.20;;;;;;5057045;28;19932;-65
2023/12/08 04:13:02;;;;;;;;;;;19.00;52.10;;;;;;5058681;28;19967;-66
2023/12/08 04:15:28;;;;;;;;;;;19.00;52.20;;;;;;5076975;28;19924;-66
2023/12/08 04:17:53;;;;;;;;;;;19.10;52.20;;;;;;5075811;28;20435;-66
2023/12/08 04:20:19;;;;;;;;;;;19.00;52.10;;;;;;5058753;28;19931;-66
2023/12/08 04:22:44;;;;;;;;;;;19.00;52.10;;;;;;5058991;28;19951;-66
2023/12/08 04:25:13;;;;;;;;;;;19.10;52.10;;;;;;5056867;28;19925;-66
2023/12/08 04:27:38;;;;;;;;;;;19.10;52.10;;;;;;5058573;28;19924;-66
2023/12/08 04:30:04;;;;;;;;;;;19.10;52.10;;;;;;5058537;28;19920;-66
2023/12/08 04:32:30;;;;;;;;;;;19.10;52.10;;;;;;5057839;28;19939;-66
2023/12/08 04:34:55;;;;;;;;;;;19.10;52.00;;;;;;5076118;28;19971;-66
2023/12/08 04:37:20;;;;;;;;;;;19.10;52.00;;;;;;5058100;28;20355;-66
2023/12/08 04:39:46;;;;;;;;;;;19.10;52.00;;;;;;5058695;28;19981;-66
2023/12/08 04:42:12;;;;;;;;;;;19.10;52.00;;;;;;5076191;28;20399;-66
2023/12/08 04:44:37;;;;;;;;;;;19.20;52.00;;;;;;5058008;28;19925;-66
2023/12/08 04:47:03;;;;;;;;;;;19.20;52.00;;;;;;5050848;28;19925;-66
2023/12/08 04:49:28;;;;;;;;;;;19.20;52.00;;;;;;5038556;28;19924;-66
2023/12/08 04:51:54;;;;;;;;;;;19.20;52.00;;;;;;5037579;28;20510;-66
2023/12/08 04:54:19;;;;;;;;;;;19.20;52.00;;;;;;5056003;28;19931;-66
2023/12/08 04:56:45;;;;;;;;;;;19.20;51.90;;;;;;5037112;28;19929;-66
2023/12/08 04:59:10;;;;;;;;;;;19.20;51.90;;;;;;5037446;28;20020;-66
2023/12/08 05:01:36;;;;;;;;;;;19.20;51.90;;;;;;5038495;28;19925;-66
2023/12/08 05:04:03;;;;;;;;;;;19.20;52.00;;;;;;5057531;28;20292;-66
2023/12/08 05:06:28;;;;;;;;;;;19.20;51.90;;;;;;5056888;28;19930;-66
2023/12/08 05:08:54;;;;;;;;;;;19.30;51.90;;;;;;5073771;28;20011;-66
2023/12/08 05:11:19;;;;;;;;;;;19.30;51.90;;;;;;5058204;28;19931;-66
2023/12/08 05:13:45;;;;;;;;;;;19.30;51.90;;;;;;5056316;28;20522;-67
2023/12/08 05:16:11;;;;;;;;;;;19.30;51.90;;;;;;5057622;28;19925;-66
2023/12/08 05:18:36;;;;;;;;;;;19.30;51.80;;;;;;5075671;28;19978;-66
2023/12/08 05:21:02;;;;;;;;;;;19.30;51.80;;;;;;5075358;28;19924;-66
2023/12/08 05:23:27;;;;;;;;;;;19.40;51.80;;;;;;5057629;28;19966;-67
2023/12/08 05:25:53;;;;;;;;;;;19.40;51.90;;;;;;5057407;28;20335;-66
2023/12/08 05:28:20;;;;;;;;;;;19.40;51.90;;;;;;5055993;28;20412;-66
2023/12/08 05:30:46;;;;;;;;;;;19.40;51.80;;;;;;5075452;28;20073;-66
2023/12/08 05:33:11;;;;;;;;;;;19.40;51.80;;;;;;5057033;28;19935;-66
2023/12/08 05:35:37;;;;;;;;;;;19.40;51.80;;;;;;5057034;28;19924;-66
2023/12/08 05:38:02;;;;;;;;;;;19.40;52.40;;;;;;5075377;28;19925;-66
2023/12/08 05:40:28;;;;;;;;;;;19.40;51.70;;;;;;5074416;28;19924;-66
2023/12/08 05:42:53;;;;;;;;;;;19.40;51.80;;;;;;5056607;28;19948;-66
2023/12/08 05:45:19;;;;;;;;;;;19.40;51.70;;;;;;5057148;28;20015;-66
2023/12/08 05:47:44;;;;;;;;;;;19.50;51.70;;;;;;5074476;28;19932;-66
2023/12/08 05:50:10;;;;;;;;;;;19.40;51.70;;;;;;5074827;28;19924;-66
2023/12/08 05:52:35;;;;;;;;;;;19.50;51.80;;;;;;5057470;28;20326;-66
2023/12/08 05:55:01;;;;;;;;;;;19.50;51.70;;;;;;5055514;28;19932;-66
2023/12/08 05:57:27;;;;;;;;;;;19.50;51.70;;;;;;5057386;28;19925;-66
2023/12/08 05:59:52;;;;;;;;;;;19.50;51.70;;;;;;5074657;28;19924;-66
2023/12/08 06:02:18;;;;;;;;;;;19.50;51.70;;;;;;5074327;28;20445;-66
2023/12/08 06:04:43;;;;;;;;;;;19.50;51.70;;;;;;5074809;28;19925;-66
2023/12/08 06:07:09;;;;;;;;;;;19.50;51.70;;;;;;5056083;28;19989;-66
2023/12/08 06:09:34;;;;;;;;;;;19.50;51.70;;;;;;5056302;28;19931;-66
2023/12/08 06:12:00;;;;;;;;;;;19.50;51.60;;;;;;5056294;28;20287;-66
2023/12/08 06:14:25;;;;;;;;;;;19.50;51.60;;;;;;5055962;28;19979;-66
2023/12/08 06:16:51;;;;;;;;;;;19.60;51.70;;;;;;5074048;28;20004;-66
2023/12/08 06:19:16;;;;;;;;;;;19.50;51.50;;;;;;5074405;28;20379;-66
2023/12/08 06:21:42;;;;;;;;;;;19.50;51.60;;;;;;5074383;28;19924;-66
2023/12/08 06:24:07;;;;;;;;;;;19.60;51.70;;;;;;5055064;28;20287;-66
2023/12/08 06:26:33;;;;;;;;;;;19.60;51.60;;;;;;5056531;28;19924;-66
2023/12/08 06:28:58;;;;;;;;;;;19.60;51.60;;;;;;5073690;28;19978;-66
2023/12/08 06:31:24;;;;;;;;;;;19.60;51.60;;;;;;5073816;28;20300;-67
2023/12/08 06:33:49;;;;;;;;;;;19.60;51.60;;;;;;5074366;28;19924;-66
2023/12/08 06:36:15;;;;;;;;;;;19.60;51.50;;;;;;5056248;28;20315;-67
2023/12/08 06:38:41;;;;;;;;;;;19.60;51.50;;;;;;5055838;28;19975;-67
2023/12/08 06:41:06;;;;;;;;;;;19.60;51.50;;;;;;5055294;28;19972;-66
2023/12/08 06:43:32;;;;;;;;;;;19.60;51.40;;;;;;5074117;28;20350;-66
2023/12/08 06:45:57;;;;;;;;;;;19.70;51.50;;;;;;5055135;28;19920;-67
2023/12/08 06:48:23;;;;;;;;;;;19.60;51.40;;;;;;5056075;28;19971;-65
2023/12/08 06:50:52;;;;;;;;;;;19.70;51.50;;;;;;5064949;28;19925;-67
2023/12/08 06:53:17;;;;;;;;;;;19.70;51.60;;;;;;5054644;28;19977;-66
2023/12/08 06:55:43;;;;;;;;;;;19.70;51.50;;;;;;5073678;28;19925;-64
2023/12/08 06:58:08;;;;;;;;;;;19.70;51.50;;;;;;5072826;28;19968;-64
2023/12/08 07:00:34;;;;;;;;;;;19.70;51.40;;;;;;5055548;28;19935;-64
2023/12/08 07:02:59;;;;;;;;;;;19.70;51.40;;;;;;5055583;28;20439;-63
2023/12/08 07:05:25;;;;;;;;;;;19.70;51.40;;;;;;5055319;28;19935;-67
2023/12/08 07:07:51;;;;;;;;;;;19.70;51.50;;;;;;5063331;28;20062;-63
2023/12/08 07:10:16;;;;;;;;;;;19.70;51.60;;;;;;5040098;28;19925;-62
2023/12/08 07:12:42;;;;;;;;;;;19.70;51.80;;;;;;5052796;28;20316;-62
2023/12/08 07:15:08;;;;;;;;;;;19.70;51.60;;;;;;5053099;28;19934;-63
2023/12/08 07:17:34;;;;;;;;;;;19.80;51.70;;;;;;5052913;28;19932;-63
2023/12/08 07:19:59;;;;;;;;;;;19.70;51.70;;;;;;5034601;28;19925;-65
2023/12/08 07:22:25;;;;;;;;;;;19.80;51.90;;;;;;5035930;28;20011;-66
2023/12/08 07:24:50;;;;;;;;;;;19.70;52.00;;;;;;5035268;28;19936;-65
2023/12/08 07:27:15;;;;;;;;;;;19.80;52.00;;;;;;5034285;28;20304;-66
2023/12/08 07:29:41;;;;;;;;;;;19.80;52.10;;;;;;5053294;28;20384;-65
2023/12/08 07:32:07;;;;;;;;;;;19.80;52.20;;;;;;5035154;28;19932;-64
2023/12/08 07:34:32;;;;;;;;;;;19.80;52.20;;;;;;5052400;28;20447;-65
2023/12/08 07:36:58;;;;;;;;;;;19.80;52.20;;;;;;5053132;28;19931;-63
2023/12/08 07:39:23;;;;;;;;;;;19.80;52.30;;;;;;5052361;28;19976;-63
2023/12/08 07:41:49;;;;;;;;;;;19.80;52.20;;;;;;5052220;28;20025;-63
2023/12/08 07:44:14;;;;;;;;;;;19.80;52.20;;;;;;5035074;28;20303;-63
2023/12/08 07:46:40;;;;;;;;;;;19.80;52.20;;;;;;5053293;28;19946;-63
2023/12/08 07:49:05;;;;;;;;;;;19.90;52.30;;;;;;5051969;28;19928;-64
2023/12/08 07:51:32;;;;;;;;;;;19.90;52.30;;;;;;5035166;28;19931;-63
2023/12/08 07:53:58;;;;;;;;;;;19.90;52.30;;;;;;5034636;28;19925;-65
2023/12/08 07:56:23;;;;;;;;;;;19.90;52.30;;;;;;5034241;28;19928;-64
2023/12/08 07:58:49;;;;;;;;;;;19.90;52.40;;;;;;5034794;28;19978;-64
2023/12/08 08:01:15;;;;;;;;;;;19.90;52.40;;;;;;5048940;28;20367;-62
2023/12/08 08:03:40;;;;;;;;;;;19.90;53.10;;;;;;5034953;28;19925;-63
2023/12/08 08:06:06;;;;;;;;;;;19.90;52.50;;;;;;5041268;28;19928;-63
2023/12/08 08:08:32;;;;;;;;;;;19.90;52.50;;;;;;5036094;28;20853;-65
2023/12/08 08:10:58;;;;;;;;;;;19.90;52.40;;;;;;5051905;28;20020;-64
2023/12/08 08:13:24;;;;;;;;;;;19.90;52.10;;;;;;5033196;28;20027;-65
2023/12/08 08:15:49;;;;;;;;;;;19.90;52.10;;;;;;5051456;28;19925;-66
2023/12/08 08:18:15;;;;;;;;;;;19.90;52.10;;;;;;5033048;28;20412;-64
2023/12/08 08:20:40;;;;;;;;;;;19.90;51.90;;;;;;5034824;28;20015;-64
2023/12/08 08:23:06;;;;;;;;;;;19.90;51.90;;;;;;5051765;28;19936;-65
2023/12/08 08:25:31;;;;;;;;;;;19.90;51.90;;;;;;5052589;28;20010;-64
2023/12/08 08:27:57;;;;;;;;;;;19.90;51.90;;;;;;5034857;28;20079;-70
2023/12/08 08:30:22;;;;;;;;;;;19.90;51.90;;;;;;5034139;28;19978;-67
2023/12/08 08:32:48;;;;;;;;;;;19.90;52.00;;;;;;5052890;28;19925;-65
2023/12/08 08:35:14;;;;;;;;;;;19.90;52.20;;;;;;5037305;28;19925;-66
2023/12/08 08:37:39;;;;;;;;;;;19.90;52.20;;;;;;5045784;28;20335;-64
2023/12/08 08:40:05;;;;;;;;;;;19.90;52.30;;;;;;5042688;28;20444;-64
2023/12/08 08:42:31;;;;;;;;;;;19.90;52.50;;;;;;5044833;28;19924;-65
2023/12/08 08:44:56;;;;;;;;;;;19.90;52.50;;;;;;5061183;28;20307;-65
2023/12/08 08:47:22;;;;;;;;;;;19.90;52.50;;;;;;5042573;28;19927;-66
2023/12/08 08:49:48;;;;;;;;;;;19.90;52.50;;;;;;5047494;28;19932;-65
2023/12/08 08:52:13;;;;;;;;;;;19.90;52.50;;;;;;5074072;28;19925;-67
2023/12/08 08:54:39;;;;;;;;;;;19.90;52.60;;;;;;5076144;28;19931;-65
2023/12/08 08:57:04;;;;;;;;;;;19.90;52.60;;;;;;5052539;28;20376;-67
2023/12/08 08:59:30;;;;;;;;;;;19.90;52.60;;;;;;5055432;28;19921;-68
2023/12/08 09:01:56;;;;;;;;;;;19.90;52.60;;;;;;5056054;28;20027;-63
2023/12/08 09:04:21;;;;;;;;;;;19.90;52.40;;;;;;5057338;28;19925;-64
2023/12/08 09:06:47;;;;;;;;;;;19.90;52.50;;;;;;5047786;28;19921;-64
2023/12/08 09:09:13;;;;;;;;;;;19.90;52.80;;;;;;5042656;28;19932;-64
2023/12/08 09:11:38;;;;;;;;;;;19.90;53.00;;;;;;5063020;28;19925;-71
2023/12/08 09:14:04;;;;;;;;;;;19.90;53.20;;;;;;5068601;28;19924;-64
2023/12/08 09:16:29;;;;;;;;;;;19.90;53.30;;;;;;5067037;28;19947;-65
2023/12/08 09:18:55;;;;;;;;;;;19.90;53.60;;;;;;5036746;28;19928;-65
2023/12/08 09:21:20;;;;;;;;;;;19.90;53.60;;;;;;5037831;28;20017;-64
2023/12/08 09:23:46;;;;;;;;;;;19.90;53.40;;;;;;5055436;28;20012;-64
2023/12/08 09:26:11;;;;;;;;;;;19.90;53.40;;;;;;5054630;28;20364;-65
2023/12/08 09:28:37;;;;;;;;;;;19.90;53.20;;;;;;5055460;28;20011;-66
2023/12/08 09:31:02;;;;;;;;;;;19.90;53.20;;;;;;5053170;28;20007;-65
2023/12/08 09:33:28;;;;;;;;;;;19.90;53.10;;;;;;5056230;28;20376;-69
2023/12/08 09:35:55;;;;;;;;;;;19.90;52.40;;;;;;5074968;28;19924;-69
2023/12/08 09:38:20;;;;;;;;;;;19.90;52.20;;;;;;5069128;28;19921;-72
2023/12/08 09:40:46;;;;;;;;;;;19.80;52.20;;;;;;5064613;28;19935;-75
2023/12/08 09:43:18;;;;;;;;;;;19.90;52.20;;;;;;5055359;28;19989;-68
2023/12/08 09:45:44;;;;;;;;;;;19.80;52.00;;;;;;5073832;28;19921;-69
2023/12/08 09:48:09;;;;;;;;;;;19.80;52.20;;;;;;5037136;28;19931;-64
2023/12/08 09:50:35;;;;;;;;;;;19.90;52.50;;;;;;5020804;28;19920;-62
2023/12/08 09:53:00;;;;;;;;;;;19.90;52.80;;;;;;5037195;28;19972;-65
2023/12/08 09:55:26;;;;;;;;;;;19.90;52.90;;;;;;5036383;28;19929;-63
2023/12/08 09:57:52;;;;;;;;;;;19.90;53.20;;;;;;5054878;28;20395;-75
2023/12/08 10:00:20;;;;;;;;;;;19.90;53.40;;;;;;5037412;28;19931;-65
2023/12/08 10:02:45;;;;;;;;;;;19.90;53.40;;;;;;5035324;28;19924;-63
2023/12/08 10:05:11;;;;;;;;;;;19.90;53.50;;;;;;5047526;28;20031;-64
2023/12/08 10:07:36;;;;;;;;;;;19.90;53.70;;;;;;5055896;28;19935;-65
2023/12/08 10:10:02;;;;;;;;;;;19.90;53.80;;;;;;5036084;28;19932;-68
2023/12/08 10:12:27;;;;;;;;;;;19.90;53.90;;;;;;5036859;28;19999;-69
2023/12/08 10:14:56;;;;;;;;;;;19.90;54.00;;;;;;5035832;28;19932;-70
2023/12/08 10:17:22;;;;;;;;;;;19.90;53.00;;;;;;5037118;28;19932;-68
2023/12/08 10:19:48;;;;;;;;;;;19.90;53.10;;;;;;5037916;28;19924;-70
2023/12/08 10:22:14;;;;;;;;;;;19.90;53.60;;;;;;5040688;28;19933;-66
2023/12/08 10:24:39;;;;;;;;;;;19.90;53.10;;;;;;5062700;28;19936;-69
2023/12/08 10:27:05;;;;;;;;;;;19.90;53.10;;;;;;5024521;28;19925;-67
2023/12/08 10:29:30;;;;;;;;;;;19.90;53.30;;;;;;5040301;28;20450;-65
2023/12/08 10:31:59;;;;;;;;;;;19.90;53.40;;;;;;5054039;28;19964;-64
2023/12/08 10:34:25;;;;;;;;;;;19.90;53.40;;;;;;5036205;28;20376;-66
2023/12/08 10:36:51;;;;;;;;;;;19.90;53.40;;;;;;5035407;28;19939;-66
2023/12/08 10:39:17;;;;;;;;;;;19.90;53.40;;;;;;5055100;28;19928;-65
2023/12/08 10:41:43;;;;;;;;;;;19.90;53.40;;;;;;5058907;28;20034;-66
2023/12/08 10:44:08;;;;;;;;;;;19.90;54.10;;;;;;5035355;28;20280;-65
2023/12/08 10:46:35;;;;;;;;;;;19.90;53.40;;;;;;5054102;28;19978;-66
2023/12/08 10:49:00;;;;;;;;;;;19.90;53.50;;;;;;5035944;28;20324;-63
2023/12/08 10:51:25;;;;;;;;;;;19.90;53.40;;;;;;5035392;28;19975;-65
2023/12/08 10:53:51;;;;;;;;;;;19.90;53.50;;;;;;5036355;28;19931;-64
2023/12/08 10:56:17;;;;;;;;;;;19.90;53.50;;;;;;5019540;28;20331;-66
2023/12/08 10:58:42;;;;;;;;;;;19.90;53.40;;;;;;5017282;28;19924;-63
2023/12/08 11:01:14;;;;;;;;;;;19.90;53.60;;;;;;5037274;28;19920;-64
2023/12/08 11:03:40;;;;;;;;;;;19.90;53.50;;;;;;5073147;28;20403;-63
2023/12/08 11:06:06;;;;;;;;;;;19.90;53.50;;;;;;5063262;28;20159;-63
2023/12/08 11:08:32;;;;;;;;;;;19.90;53.60;;;;;;5062727;28;19925;-63
2023/12/08 11:10:57;;;;;;;;;;;19.90;53.60;;;;;;5038329;28;19924;-63
2023/12/08 11:13:25;;;;;;;;;;;19.90;53.60;;;;;;5054652;28;19924;-63
2023/12/08 11:16:09;;;;;;;;;;;19.90;53.60;;;;;;5054290;28;19928;-63
2023/12/08 11:18:36;;;;;;;;;;;19.90;53.70;;;;;;5054195;28;19931;-63
2023/12/08 11:21:08;;;;;;;;;;;19.90;53.60;;;;;;5055059;28;19924;-63
2023/12/08 11:23:37;;;;;;;;;;;19.90;53.60;;;;;;5053244;28;19967;-63
2023/12/08 11:26:18;;;;;;;;;;;19.90;53.60;;;;;;5044099;28;20391;-63
2023/12/08 11:29:02;;;;;;;;;;;19.90;53.60;;;;;;5045017;28;19932;-63
2023/12/08 11:31:46;;;;;;;;;;;19.90;53.70;;;;;;5041916;28;19931;-64
2023/12/08 11:34:13;;;;;;;;;;;19.90;53.80;;;;;;5064857;28;19928;-64
2023/12/08 11:36:43;;;;;;;;;;;19.90;53.90;;;;;;5038944;28;20402;-64
2023/12/08 11:39:27;;;;;;;;;;;19.90;54.00;;;;;;5072711;28;19925;-64
2023/12/08 11:41:53;;;;;;;;;;;19.90;54.00;;;;;;5073045;28;19932;-64
2023/12/08 11:44:19;;;;;;;;;;;19.90;54.10;;;;;;5055377;28;19924;-65
2023/12/08 11:46:44;;;;;;;;;;;19.90;54.10;;;;;;5054737;28;19925;-64
2023/12/08 11:49:11;;;;;;;;;;;19.90;54.20;;;;;;5037985;28;20367;-65
2023/12/08 11:51:36;;;;;;;;;;;19.90;54.20;;;;;;5034706;28;20396;-63
2023/12/08 11:54:05;;;;;;;;;;;19.90;54.20;;;;;;5051860;28;19959;-64
2023/12/08 11:56:45;;;;;;;;;;;19.90;54.10;;;;;;5035393;28;20373;-64
2023/12/08 11:59:29;;;;;;;;;;;19.90;54.00;;;;;;5050792;28;19928;-65
2023/12/08 12:01:56;;;;;;;;;;;19.90;53.80;;;;;;5053947;28;20051;-63
2023/12/08 12:04:22;;;;;;;;;;;19.90;53.60;;;;;;5054772;28;19920;-64
2023/12/08 12:06:49;;;;;;;;;;;19.80;53.40;;;;;;5073183;28;19993;-64
2023/12/08 12:09:15;;;;;;;;;;;19.80;53.40;;;;;;5054305;28;19924;-64
2023/12/08 12:11:41;;;;;;;;;;;19.80;53.40;;;;;;5038746;28;19927;-64
2023/12/08 12:14:07;;;;;;;;;;;19.80;53.30;;;;;;5038319;28;20265;-64
2023/12/08 12:16:33;;;;;;;;;;;19.80;53.40;;;;;;5037758;28;19924;-63
2023/12/08 12:18:59;;;;;;;;;;;19.80;53.40;;;;;;5060982;28;19925;-64
2023/12/08 12:21:24;;;;;;;;;;;19.70;53.30;;;;;;5039432;28;19928;-64
2023/12/08 12:23:50;;;;;;;;;;;19.70;53.40;;;;;;5060185;28;19925;-63
2023/12/08 12:26:18;;;;;;;;;;;19.70;53.60;;;;;;5044390;28;20600;-64
2023/12/08 12:28:43;;;;;;;;;;;19.70;53.60;;;;;;5064694;28;19925;-63
2023/12/08 12:31:09;;;;;;;;;;;19.70;53.70;;;;;;5063905;28;19978;-64
2023/12/08 12:33:36;;;;;;;;;;;19.70;53.70;;;;;;5044262;28;20364;-64
2023/12/08 12:36:03;;;;;;;;;;;19.70;53.80;;;;;;5040367;28;20284;-63
2023/12/08 12:38:29;;;;;;;;;;;19.70;53.80;;;;;;5049869;28;20388;-64
2023/12/08 12:40:55;;;;;;;;;;;19.70;53.90;;;;;;5045560;28;19986;-63
2023/12/08 12:43:21;;;;;;;;;;;19.70;54.00;;;;;;5065297;28;20376;-63
2023/12/08 12:45:47;;;;;;;;;;;19.80;54.10;;;;;;5031115;28;19936;-64
2023/12/08 12:48:12;;;;;;;;;;;19.80;54.10;;;;;;5047099;28;19955;-63
2023/12/08 12:50:49;;;;;;;;;;;19.70;54.10;;;;;;5045507;28;20372;-62
2023/12/08 12:53:14;;;;;;;;;;;19.70;54.10;;;;;;5034200;28;20506;-63
2023/12/08 12:55:40;;;;;;;;;;;19.80;54.30;;;;;;5049552;28;19963;-63
2023/12/08 12:58:05;;;;;;;;;;;19.80;54.30;;;;;;5048052;28;19925;-62
2023/12/08 13:00:34;;;;;;;;;;;19.80;54.30;;;;;;5067760;28;19920;-62
2023/12/08 13:03:12;;;;;;;;;;;19.80;54.40;;;;;;5064290;28;20668;-63
2023/12/08 13:05:48;;;;;;;;;;;19.80;54.40;;;;;;5045761;28;19929;-62
2023/12/08 13:08:13;;;;;;;;;;;19.80;54.40;;;;;;5045831;28;20351;-62
2023/12/08 13:10:39;;;;;;;;;;;19.80;54.40;;;;;;5063532;28;20430;-62
2023/12/08 13:13:05;;;;;;;;;;;19.80;54.40;;;;;;5047200;28;19924;-62
2023/12/08 13:15:30;;;;;;;;;;;19.80;54.40;;;;;;5045573;28;19932;-62
2023/12/08 13:17:56;;;;;;;;;;;19.80;54.50;;;;;;5047311;28;19984;-64
2023/12/08 13:20:21;;;;;;;;;;;19.80;54.50;;;;;;5045730;28;20383;-62
2023/12/08 13:22:47;;;;;;;;;;;19.90;54.50;;;;;;5063866;28;19929;-63
2023/12/08 13:25:12;;;;;;;;;;;19.90;54.60;;;;;;5045760;28;19929;-62
2023/12/08 13:27:38;;;;;;;;;;;19.90;54.50;;;;;;5045987;28;20011;-62
2023/12/08 13:30:03;;;;;;;;;;;19.90;54.50;;;;;;5045917;28;19920;-63
2023/12/08 13:32:29;;;;;;;;;;;19.90;54.50;;;;;;5046017;28;19932;-62
2023/12/08 13:34:54;;;;;;;;;;;19.90;54.40;;;;;;5044902;28;19925;-65
2023/12/08 13:37:20;;;;;;;;;;;19.90;54.50;;;;;;5042172;28;20346;-63
2023/12/08 13:39:45;;;;;;;;;;;19.90;54.40;;;;;;5040461;28;19924;-63
2023/12/08 13:42:11;;;;;;;;;;;19.90;54.20;;;;;;5037406;28;19932;-64
2023/12/08 13:44:36;;;;;;;;;;;19.90;54.30;;;;;;5045932;28;19933;-63
2023/12/08 13:47:02;;;;;;;;;;;19.90;54.40;;;;;;5056492;28;19931;-62
2023/12/08 13:49:28;;;;;;;;;;;19.90;54.30;;;;;;5074873;28;20060;-63
2023/12/08 13:51:56;;;;;;;;;;;20.00;54.30;;;;;;5074928;28;20368;-64
2023/12/08 13:54:22;;;;;;;;;;;20.00;54.20;;;;;;5055479;28;20444;-63
2023/12/08 13:56:48;;;;;;;;;;;20.00;54.30;;;;;;5056612;28;19963;-63
2023/12/08 13:59:13;;;;;;;;;;;20.00;54.30;;;;;;5056676;28;19929;-63
2023/12/08 14:01:38;;;;;;;;;;;20.00;54.30;;;;;;5073752;28;20368;-63
2023/12/08 14:04:04;;;;;;;;;;;20.00;54.20;;;;;;5055592;28;20012;-63
2023/12/08 14:06:29;;;;;;;;;;;20.00;54.30;;;;;;5046127;28;19978;-63
2023/12/08 14:08:55;;;;;;;;;;;20.00;54.30;;;;;;5038079;28;20008;-62